sensor_id;sensor_type;location;lat;lon;timestamp;P1;durP1;ratioP1;P2;durP2;ratioP2
42840;SDS011;28491;46.898;7.660;2023-04-15T00:00:27;16.15;;;3.08;;
42840;SDS011;28491;46.898;7.660;2023-04-15T00:02:53;4.80;;;2.38;;
42840;SDS011;28491;46.898;7.660;2023-04-15T00:05:19;3.60;;;1.88;;
42840;SDS011;28491;46.898;7.660;2023-04-15T00:07:44;5.00;;;1.77;;
42840;SDS011;28491;46.898;7.660;2023-04-15T00:10:11;7.63;;;2.00;;
42840;SDS011;28491;46.898;7.660;2023-04-15T00:12:37;11.60;;;2.22;;
42840;SDS011;28491;46.898;7.660;2023-04-15T00:15:03;3.50;;;1.70;;
42840;SDS011;28491;46.898;7.660;2023-04-15T00:17:29;8.10;;;2.30;;
42840;SDS011;28491;46.898;7.660;2023-04-15T00:19:54;8.95;;;2.00;;
42840;SDS011;28491;46.898;7.660;2023-04-15T00:22:20;6.13;;;2.53;;
42840;SDS011;28491;46.898;7.660;2023-04-15T00:24:46;5.78;;;2.08;;
42840;SDS011;28491;46.898;7.660;2023-04-15T00:27:12;5.45;;;1.75;;
42840;SDS011;28491;46.898;7.660;2023-04-15T00:29:37;7.47;;;2.70;;
42840;SDS011;28491;46.898;7.660;2023-04-15T00:32:03;3.50;;;2.40;;
42840;SDS011;28491;46.898;7.660;2023-04-15T00:34:28;7.45;;;1.90;;
42840;SDS011;28491;46.898;7.660;2023-04-15T00:36:54;6.60;;;2.20;;
42840;SDS011;28491;46.898;7.660;2023-04-15T00:39:19;4.28;;;1.88;;
42840;SDS011;28491;46.898;7.660;2023-04-15T00:41:46;5.00;;;2.13;;
42840;SDS011;28491;46.898;7.660;2023-04-15T00:44:13;6.13;;;1.73;;
42840;SDS011;28491;46.898;7.660;2023-04-15T00:46:38;3.15;;;1.67;;
42840;SDS011;28491;46.898;7.660;2023-04-15T00:49:05;6.25;;;2.10;;
42840;SDS011;28491;46.898;7.660;2023-04-15T00:51:32;6.47;;;3.55;;
42840;SDS011;28491;46.898;7.660;2023-04-15T00:54:00;3.95;;;1.92;;
42840;SDS011;28491;46.898;7.660;2023-04-15T00:56:28;7.60;;;2.50;;
42840;SDS011;28491;46.898;7.660;2023-04-15T00:58:55;5.43;;;2.28;;
42840;SDS011;28491;46.898;7.660;2023-04-15T01:01:21;3.72;;;2.05;;
42840;SDS011;28491;46.898;7.660;2023-04-15T01:03:50;3.93;;;1.80;;
42840;SDS011;28491;46.898;7.660;2023-04-15T01:06:16;5.45;;;2.22;;
42840;SDS011;28491;46.898;7.660;2023-04-15T01:08:42;4.47;;;2.15;;
42840;SDS011;28491;46.898;7.660;2023-04-15T01:11:09;6.05;;;1.80;;
42840;SDS011;28491;46.898;7.660;2023-04-15T01:13:36;3.33;;;1.67;;
42840;SDS011;28491;46.898;7.660;2023-04-15T01:16:02;3.78;;;1.50;;
42840;SDS011;28491;46.898;7.660;2023-04-15T01:18:28;4.93;;;2.28;;
42840;SDS011;28491;46.898;7.660;2023-04-15T01:20:54;9.88;;;4.22;;
42840;SDS011;28491;46.898;7.660;2023-04-15T01:23:20;8.57;;;2.28;;
42840;SDS011;28491;46.898;7.660;2023-04-15T01:25:47;6.57;;;2.38;;
42840;SDS011;28491;46.898;7.660;2023-04-15T01:28:13;4.55;;;1.90;;
42840;SDS011;28491;46.898;7.660;2023-04-15T01:30:39;7.25;;;1.88;;
42840;SDS011;28491;46.898;7.660;2023-04-15T01:33:04;2.70;;;1.80;;
42840;SDS011;28491;46.898;7.660;2023-04-15T01:35:30;2.75;;;1.65;;
42840;SDS011;28491;46.898;7.660;2023-04-15T01:37:58;7.75;;;1.90;;
42840;SDS011;28491;46.898;7.660;2023-04-15T01:40:30;9.77;;;1.98;;
42840;SDS011;28491;46.898;7.660;2023-04-15T01:42:56;4.32;;;1.70;;
42840;SDS011;28491;46.898;7.660;2023-04-15T01:45:21;6.22;;;2.05;;
42840;SDS011;28491;46.898;7.660;2023-04-15T01:47:47;4.72;;;2.30;;
42840;SDS011;28491;46.898;7.660;2023-04-15T01:50:13;7.25;;;2.95;;
42840;SDS011;28491;46.898;7.660;2023-04-15T01:52:39;10.63;;;4.22;;
42840;SDS011;28491;46.898;7.660;2023-04-15T01:55:05;8.95;;;2.88;;
42840;SDS011;28491;46.898;7.660;2023-04-15T01:57:32;5.65;;;2.92;;
42840;SDS011;28491;46.898;7.660;2023-04-15T01:59:57;5.78;;;2.50;;
42840;SDS011;28491;46.898;7.660;2023-04-15T02:02:23;5.20;;;2.15;;
42840;SDS011;28491;46.898;7.660;2023-04-15T02:04:48;6.25;;;1.85;;
42840;SDS011;28491;46.898;7.660;2023-04-15T02:07:14;3.10;;;1.80;;
42840;SDS011;28491;46.898;7.660;2023-04-15T02:09:40;5.85;;;2.38;;
42840;SDS011;28491;46.898;7.660;2023-04-15T02:12:05;4.05;;;1.67;;
42840;SDS011;28491;46.898;7.660;2023-04-15T02:14:31;3.15;;;2.05;;
42840;SDS011;28491;46.898;7.660;2023-04-15T02:16:56;5.15;;;1.70;;
42840;SDS011;28491;46.898;7.660;2023-04-15T02:19:22;5.72;;;2.72;;
42840;SDS011;28491;46.898;7.660;2023-04-15T02:21:47;3.47;;;2.13;;
42840;SDS011;28491;46.898;7.660;2023-04-15T02:24:13;8.23;;;2.78;;
42840;SDS011;28491;46.898;7.660;2023-04-15T02:26:38;3.58;;;1.90;;
42840;SDS011;28491;46.898;7.660;2023-04-15T02:29:04;5.68;;;2.22;;
42840;SDS011;28491;46.898;7.660;2023-04-15T02:31:30;5.03;;;2.10;;
42840;SDS011;28491;46.898;7.660;2023-04-15T02:34:00;4.57;;;1.50;;
42840;SDS011;28491;46.898;7.660;2023-04-15T02:36:28;4.60;;;1.85;;
42840;SDS011;28491;46.898;7.660;2023-04-15T02:38:55;4.63;;;2.50;;
42840;SDS011;28491;46.898;7.660;2023-04-15T02:41:21;3.10;;;1.85;;
42840;SDS011;28491;46.898;7.660;2023-04-15T02:43:51;5.50;;;2.15;;
42840;SDS011;28491;46.898;7.660;2023-04-15T02:46:16;6.05;;;2.67;;
42840;SDS011;28491;46.898;7.660;2023-04-15T02:48:42;5.18;;;1.92;;
42840;SDS011;28491;46.898;7.660;2023-04-15T02:51:14;5.85;;;1.92;;
42840;SDS011;28491;46.898;7.660;2023-04-15T02:53:42;3.42;;;1.90;;
42840;SDS011;28491;46.898;7.660;2023-04-15T02:56:07;2.97;;;1.77;;
42840;SDS011;28491;46.898;7.660;2023-04-15T02:58:34;4.47;;;1.80;;
42840;SDS011;28491;46.898;7.660;2023-04-15T03:00:59;8.10;;;3.45;;
42840;SDS011;28491;46.898;7.660;2023-04-15T03:03:25;7.30;;;2.72;;
42840;SDS011;28491;46.898;7.660;2023-04-15T03:05:52;5.97;;;2.33;;
42840;SDS011;28491;46.898;7.660;2023-04-15T03:08:18;8.20;;;2.30;;
42840;SDS011;28491;46.898;7.660;2023-04-15T03:10:44;4.90;;;2.25;;
42840;SDS011;28491;46.898;7.660;2023-04-15T03:13:10;5.50;;;2.25;;
42840;SDS011;28491;46.898;7.660;2023-04-15T03:15:35;12.15;;;3.22;;
42840;SDS011;28491;46.898;7.660;2023-04-15T03:18:01;7.35;;;2.17;;
42840;SDS011;28491;46.898;7.660;2023-04-15T03:20:26;7.72;;;2.03;;
42840;SDS011;28491;46.898;7.660;2023-04-15T03:22:52;2.88;;;1.70;;
42840;SDS011;28491;46.898;7.660;2023-04-15T03:25:18;6.50;;;1.95;;
42840;SDS011;28491;46.898;7.660;2023-04-15T03:27:43;5.38;;;2.03;;
42840;SDS011;28491;46.898;7.660;2023-04-15T03:30:09;4.97;;;2.28;;
42840;SDS011;28491;46.898;7.660;2023-04-15T03:32:35;4.88;;;2.22;;
42840;SDS011;28491;46.898;7.660;2023-04-15T03:35:01;6.38;;;2.33;;
42840;SDS011;28491;46.898;7.660;2023-04-15T03:37:26;5.00;;;2.08;;
42840;SDS011;28491;46.898;7.660;2023-04-15T03:39:51;6.38;;;2.17;;
42840;SDS011;28491;46.898;7.660;2023-04-15T03:42:17;3.70;;;1.77;;
42840;SDS011;28491;46.898;7.660;2023-04-15T03:44:42;5.68;;;2.60;;
42840;SDS011;28491;46.898;7.660;2023-04-15T03:47:08;6.45;;;2.10;;
42840;SDS011;28491;46.898;7.660;2023-04-15T03:49:34;4.97;;;2.42;;
42840;SDS011;28491;46.898;7.660;2023-04-15T03:52:00;3.75;;;2.03;;
42840;SDS011;28491;46.898;7.660;2023-04-15T03:54:26;4.45;;;2.10;;
42840;SDS011;28491;46.898;7.660;2023-04-15T03:56:51;9.68;;;2.90;;
42840;SDS011;28491;46.898;7.660;2023-04-15T03:59:17;6.80;;;2.53;;
42840;SDS011;28491;46.898;7.660;2023-04-15T04:01:42;5.53;;;3.13;;
42840;SDS011;28491;46.898;7.660;2023-04-15T04:04:08;9.23;;;3.20;;
42840;SDS011;28491;46.898;7.660;2023-04-15T04:06:33;5.47;;;2.60;;
42840;SDS011;28491;46.898;7.660;2023-04-15T04:08:59;4.68;;;2.38;;
42840;SDS011;28491;46.898;7.660;2023-04-15T04:11:25;5.32;;;2.95;;
42840;SDS011;28491;46.898;7.660;2023-04-15T04:13:52;5.95;;;2.92;;
42840;SDS011;28491;46.898;7.660;2023-04-15T04:16:17;8.93;;;2.88;;
42840;SDS011;28491;46.898;7.660;2023-04-15T04:18:43;5.85;;;2.70;;
42840;SDS011;28491;46.898;7.660;2023-04-15T04:21:09;3.80;;;2.45;;
42840;SDS011;28491;46.898;7.660;2023-04-15T04:23:34;6.07;;;3.00;;
42840;SDS011;28491;46.898;7.660;2023-04-15T04:26:00;4.40;;;2.50;;
42840;SDS011;28491;46.898;7.660;2023-04-15T04:28:26;6.60;;;2.30;;
42840;SDS011;28491;46.898;7.660;2023-04-15T04:30:52;5.85;;;2.65;;
42840;SDS011;28491;46.898;7.660;2023-04-15T04:33:17;7.00;;;2.80;;
42840;SDS011;28491;46.898;7.660;2023-04-15T04:35:43;7.00;;;3.13;;
42840;SDS011;28491;46.898;7.660;2023-04-15T04:38:08;7.13;;;3.05;;
42840;SDS011;28491;46.898;7.660;2023-04-15T04:40:34;5.07;;;2.47;;
42840;SDS011;28491;46.898;7.660;2023-04-15T04:43:00;8.10;;;2.47;;
42840;SDS011;28491;46.898;7.660;2023-04-15T04:45:26;4.80;;;2.33;;
42840;SDS011;28491;46.898;7.660;2023-04-15T04:47:51;10.18;;;3.00;;
42840;SDS011;28491;46.898;7.660;2023-04-15T04:50:17;6.50;;;2.60;;
42840;SDS011;28491;46.898;7.660;2023-04-15T04:52:42;4.03;;;2.50;;
42840;SDS011;28491;46.898;7.660;2023-04-15T04:55:08;4.47;;;2.53;;
42840;SDS011;28491;46.898;7.660;2023-04-15T04:57:34;5.63;;;2.30;;
42840;SDS011;28491;46.898;7.660;2023-04-15T05:00:00;5.07;;;2.38;;
42840;SDS011;28491;46.898;7.660;2023-04-15T05:02:27;6.43;;;2.65;;
42840;SDS011;28491;46.898;7.660;2023-04-15T05:04:52;6.47;;;2.90;;
42840;SDS011;28491;46.898;7.660;2023-04-15T05:07:18;9.13;;;5.30;;
42840;SDS011;28491;46.898;7.660;2023-04-15T05:09:45;13.40;;;7.25;;
42840;SDS011;28491;46.898;7.660;2023-04-15T05:12:10;10.30;;;4.18;;
42840;SDS011;28491;46.898;7.660;2023-04-15T05:14:39;7.18;;;3.70;;
42840;SDS011;28491;46.898;7.660;2023-04-15T05:17:05;6.63;;;2.70;;
42840;SDS011;28491;46.898;7.660;2023-04-15T05:19:31;4.75;;;2.70;;
42840;SDS011;28491;46.898;7.660;2023-04-15T05:21:56;4.90;;;2.33;;
42840;SDS011;28491;46.898;7.660;2023-04-15T05:24:22;10.90;;;3.25;;
42840;SDS011;28491;46.898;7.660;2023-04-15T05:26:47;6.15;;;2.67;;
42840;SDS011;28491;46.898;7.660;2023-04-15T05:29:13;7.47;;;3.25;;
42840;SDS011;28491;46.898;7.660;2023-04-15T05:31:39;5.38;;;2.15;;
42840;SDS011;28491;46.898;7.660;2023-04-15T05:34:04;6.25;;;3.30;;
42840;SDS011;28491;46.898;7.660;2023-04-15T05:36:31;8.15;;;2.80;;
42840;SDS011;28491;46.898;7.660;2023-04-15T05:38:56;5.88;;;3.15;;
42840;SDS011;28491;46.898;7.660;2023-04-15T05:41:22;7.53;;;2.90;;
42840;SDS011;28491;46.898;7.660;2023-04-15T05:43:47;5.68;;;2.70;;
42840;SDS011;28491;46.898;7.660;2023-04-15T05:46:13;5.68;;;2.85;;
42840;SDS011;28491;46.898;7.660;2023-04-15T05:48:38;5.22;;;2.88;;
42840;SDS011;28491;46.898;7.660;2023-04-15T05:51:04;4.78;;;3.03;;
42840;SDS011;28491;46.898;7.660;2023-04-15T05:53:30;6.85;;;3.70;;
42840;SDS011;28491;46.898;7.660;2023-04-15T05:55:55;3.95;;;2.80;;
42840;SDS011;28491;46.898;7.660;2023-04-15T05:58:21;3.40;;;2.45;;
42840;SDS011;28491;46.898;7.660;2023-04-15T06:00:47;6.05;;;2.25;;
42840;SDS011;28491;46.898;7.660;2023-04-15T06:03:12;7.50;;;2.45;;
42840;SDS011;28491;46.898;7.660;2023-04-15T06:05:38;5.05;;;2.40;;
42840;SDS011;28491;46.898;7.660;2023-04-15T06:08:04;4.93;;;2.97;;
42840;SDS011;28491;46.898;7.660;2023-04-15T06:10:30;5.43;;;3.03;;
42840;SDS011;28491;46.898;7.660;2023-04-15T06:13:00;7.70;;;3.30;;
42840;SDS011;28491;46.898;7.660;2023-04-15T06:15:27;4.50;;;3.08;;
42840;SDS011;28491;46.898;7.660;2023-04-15T06:17:52;6.07;;;2.45;;
42840;SDS011;28491;46.898;7.660;2023-04-15T06:20:18;5.88;;;2.40;;
42840;SDS011;28491;46.898;7.660;2023-04-15T06:22:43;3.80;;;2.60;;
42840;SDS011;28491;46.898;7.660;2023-04-15T06:25:09;5.93;;;2.30;;
42840;SDS011;28491;46.898;7.660;2023-04-15T06:27:34;5.40;;;2.60;;
42840;SDS011;28491;46.898;7.660;2023-04-15T06:30:00;11.48;;;6.25;;
42840;SDS011;28491;46.898;7.660;2023-04-15T06:32:26;7.10;;;4.82;;
42840;SDS011;28491;46.898;7.660;2023-04-15T06:34:51;5.78;;;3.65;;
42840;SDS011;28491;46.898;7.660;2023-04-15T06:37:17;6.57;;;2.80;;
42840;SDS011;28491;46.898;7.660;2023-04-15T06:39:42;6.82;;;2.67;;
42840;SDS011;28491;46.898;7.660;2023-04-15T06:42:08;6.68;;;2.08;;
42840;SDS011;28491;46.898;7.660;2023-04-15T06:44:34;5.47;;;2.70;;
42840;SDS011;28491;46.898;7.660;2023-04-15T06:47:01;20.67;;;11.55;;
42840;SDS011;28491;46.898;7.660;2023-04-15T06:49:26;5.05;;;2.33;;
42840;SDS011;28491;46.898;7.660;2023-04-15T06:51:52;11.48;;;4.32;;
42840;SDS011;28491;46.898;7.660;2023-04-15T06:54:18;5.32;;;3.58;;
42840;SDS011;28491;46.898;7.660;2023-04-15T06:56:43;3.90;;;2.33;;
42840;SDS011;28491;46.898;7.660;2023-04-15T06:59:09;6.32;;;3.38;;
42840;SDS011;28491;46.898;7.660;2023-04-15T07:01:35;5.13;;;3.20;;
42840;SDS011;28491;46.898;7.660;2023-04-15T07:04:00;8.65;;;2.65;;
42840;SDS011;28491;46.898;7.660;2023-04-15T07:06:26;6.22;;;2.75;;
42840;SDS011;28491;46.898;7.660;2023-04-15T07:08:52;11.07;;;7.50;;
42840;SDS011;28491;46.898;7.660;2023-04-15T07:11:18;9.25;;;5.95;;
42840;SDS011;28491;46.898;7.660;2023-04-15T07:13:45;4.38;;;2.30;;
42840;SDS011;28491;46.898;7.660;2023-04-15T07:16:10;9.77;;;4.32;;
42840;SDS011;28491;46.898;7.660;2023-04-15T07:18:36;7.65;;;3.08;;
42840;SDS011;28491;46.898;7.660;2023-04-15T07:21:02;6.55;;;2.63;;
42840;SDS011;28491;46.898;7.660;2023-04-15T07:23:27;7.63;;;2.97;;
42840;SDS011;28491;46.898;7.660;2023-04-15T07:25:53;4.05;;;2.35;;
42840;SDS011;28491;46.898;7.660;2023-04-15T07:28:19;5.38;;;3.55;;
42840;SDS011;28491;46.898;7.660;2023-04-15T07:30:44;4.30;;;2.88;;
42840;SDS011;28491;46.898;7.660;2023-04-15T07:33:10;5.05;;;2.20;;
42840;SDS011;28491;46.898;7.660;2023-04-15T07:35:35;4.32;;;1.63;;
42840;SDS011;28491;46.898;7.660;2023-04-15T07:38:01;4.78;;;1.40;;
42840;SDS011;28491;46.898;7.660;2023-04-15T07:40:27;9.70;;;2.75;;
42840;SDS011;28491;46.898;7.660;2023-04-15T07:42:53;4.05;;;1.70;;
42840;SDS011;28491;46.898;7.660;2023-04-15T07:45:20;2.85;;;1.40;;
42840;SDS011;28491;46.898;7.660;2023-04-15T07:47:45;4.20;;;1.95;;
42840;SDS011;28491;46.898;7.660;2023-04-15T07:50:11;6.20;;;2.03;;
42840;SDS011;28491;46.898;7.660;2023-04-15T07:52:36;7.30;;;2.60;;
42840;SDS011;28491;46.898;7.660;2023-04-15T07:55:05;3.93;;;2.03;;
42840;SDS011;28491;46.898;7.660;2023-04-15T07:57:35;10.05;;;5.50;;
42840;SDS011;28491;46.898;7.660;2023-04-15T08:00:02;6.35;;;2.30;;
42840;SDS011;28491;46.898;7.660;2023-04-15T08:02:31;5.18;;;2.22;;
42840;SDS011;28491;46.898;7.660;2023-04-15T08:04:57;6.53;;;2.60;;
42840;SDS011;28491;46.898;7.660;2023-04-15T08:07:23;4.85;;;1.95;;
42840;SDS011;28491;46.898;7.660;2023-04-15T08:09:49;7.65;;;2.55;;
42840;SDS011;28491;46.898;7.660;2023-04-15T08:12:15;4.88;;;2.65;;
42840;SDS011;28491;46.898;7.660;2023-04-15T08:14:41;4.25;;;2.50;;
42840;SDS011;28491;46.898;7.660;2023-04-15T08:17:06;6.13;;;2.53;;
42840;SDS011;28491;46.898;7.660;2023-04-15T08:19:32;4.97;;;2.65;;
42840;SDS011;28491;46.898;7.660;2023-04-15T08:21:58;6.80;;;2.55;;
42840;SDS011;28491;46.898;7.660;2023-04-15T08:24:23;9.02;;;2.65;;
42840;SDS011;28491;46.898;7.660;2023-04-15T08:26:50;6.00;;;2.67;;
42840;SDS011;28491;46.898;7.660;2023-04-15T08:29:16;7.05;;;3.10;;
42840;SDS011;28491;46.898;7.660;2023-04-15T08:31:42;6.30;;;2.40;;
42840;SDS011;28491;46.898;7.660;2023-04-15T08:34:08;5.75;;;2.70;;
42840;SDS011;28491;46.898;7.660;2023-04-15T08:36:36;3.88;;;2.30;;
42840;SDS011;28491;46.898;7.660;2023-04-15T08:39:01;4.30;;;2.35;;
42840;SDS011;28491;46.898;7.660;2023-04-15T08:41:29;5.65;;;2.13;;
42840;SDS011;28491;46.898;7.660;2023-04-15T08:44:04;3.58;;;1.73;;
42840;SDS011;28491;46.898;7.660;2023-04-15T08:46:30;3.95;;;2.30;;
42840;SDS011;28491;46.898;7.660;2023-04-15T08:48:58;5.50;;;1.73;;
42840;SDS011;28491;46.898;7.660;2023-04-15T08:51:27;3.88;;;1.48;;
42840;SDS011;28491;46.898;7.660;2023-04-15T08:53:53;2.80;;;1.33;;
42840;SDS011;28491;46.898;7.660;2023-04-15T08:56:19;3.58;;;1.50;;
42840;SDS011;28491;46.898;7.660;2023-04-15T08:58:50;4.22;;;1.40;;
42840;SDS011;28491;46.898;7.660;2023-04-15T09:01:16;3.20;;;1.10;;
42840;SDS011;28491;46.898;7.660;2023-04-15T09:03:42;10.48;;;6.57;;
42840;SDS011;28491;46.898;7.660;2023-04-15T09:06:08;3.28;;;1.58;;
42840;SDS011;28491;46.898;7.660;2023-04-15T09:08:34;2.88;;;1.20;;
42840;SDS011;28491;46.898;7.660;2023-04-15T09:11:00;6.20;;;2.15;;
42840;SDS011;28491;46.898;7.660;2023-04-15T09:13:29;1.83;;;1.10;;
42840;SDS011;28491;46.898;7.660;2023-04-15T09:15:55;2.75;;;1.05;;
42840;SDS011;28491;46.898;7.660;2023-04-15T09:18:27;2.63;;;1.23;;
42840;SDS011;28491;46.898;7.660;2023-04-15T09:20:53;1.63;;;1.10;;
42840;SDS011;28491;46.898;7.660;2023-04-15T09:23:19;3.20;;;1.65;;
42840;SDS011;28491;46.898;7.660;2023-04-15T09:25:45;4.25;;;1.70;;
42840;SDS011;28491;46.898;7.660;2023-04-15T09:28:13;2.70;;;1.20;;
42840;SDS011;28491;46.898;7.660;2023-04-15T09:30:38;3.97;;;1.60;;
42840;SDS011;28491;46.898;7.660;2023-04-15T09:33:10;2.92;;;1.50;;
42840;SDS011;28491;46.898;7.660;2023-04-15T09:35:38;3.30;;;1.75;;
42840;SDS011;28491;46.898;7.660;2023-04-15T09:38:08;2.72;;;1.73;;
42840;SDS011;28491;46.898;7.660;2023-04-15T09:40:34;1.35;;;0.90;;
42840;SDS011;28491;46.898;7.660;2023-04-15T09:43:01;0.88;;;0.80;;
42840;SDS011;28491;46.898;7.660;2023-04-15T09:45:27;0.65;;;0.50;;
42840;SDS011;28491;46.898;7.660;2023-04-15T09:47:53;0.40;;;0.40;;
42840;SDS011;28491;46.898;7.660;2023-04-15T09:50:20;1.20;;;0.50;;
42840;SDS011;28491;46.898;7.660;2023-04-15T09:52:45;0.57;;;0.50;;
42840;SDS011;28491;46.898;7.660;2023-04-15T09:55:12;2.38;;;1.00;;
42840;SDS011;28491;46.898;7.660;2023-04-15T09:57:38;1.38;;;0.77;;
42840;SDS011;28491;46.898;7.660;2023-04-15T10:00:11;1.73;;;0.57;;
42840;SDS011;28491;46.898;7.660;2023-04-15T10:02:39;1.00;;;0.75;;
42840;SDS011;28491;46.898;7.660;2023-04-15T10:05:06;0.80;;;0.52;;
42840;SDS011;28491;46.898;7.660;2023-04-15T10:07:34;1.40;;;0.52;;
42840;SDS011;28491;46.898;7.660;2023-04-15T10:09:59;1.55;;;0.93;;
42840;SDS011;28491;46.898;7.660;2023-04-15T10:12:26;2.80;;;1.00;;
42840;SDS011;28491;46.898;7.660;2023-04-15T10:15:03;1.00;;;0.90;;
42840;SDS011;28491;46.898;7.660;2023-04-15T10:17:29;1.08;;;0.70;;
42840;SDS011;28491;46.898;7.660;2023-04-15T10:20:01;2.88;;;1.00;;
42840;SDS011;28491;46.898;7.660;2023-04-15T10:22:28;0.70;;;0.70;;
42840;SDS011;28491;46.898;7.660;2023-04-15T10:24:55;0.47;;;0.47;;
42840;SDS011;28491;46.898;7.660;2023-04-15T10:27:22;2.75;;;0.90;;
42840;SDS011;28491;46.898;7.660;2023-04-15T10:29:49;2.47;;;0.95;;
42840;SDS011;28491;46.898;7.660;2023-04-15T10:32:16;2.50;;;1.10;;
42840;SDS011;28491;46.898;7.660;2023-04-15T10:34:46;3.60;;;1.20;;
42840;SDS011;28491;46.898;7.660;2023-04-15T10:37:19;3.70;;;1.30;;
42840;SDS011;28491;46.898;7.660;2023-04-15T10:39:46;2.38;;;1.17;;
42840;SDS011;28491;46.898;7.660;2023-04-15T10:42:13;2.60;;;1.70;;
42840;SDS011;28491;46.898;7.660;2023-04-15T10:44:50;2.05;;;1.73;;
42840;SDS011;28491;46.898;7.660;2023-04-15T10:47:20;1.00;;;0.63;;
42840;SDS011;28491;46.898;7.660;2023-04-15T10:49:47;0.73;;;0.73;;
42840;SDS011;28491;46.898;7.660;2023-04-15T10:52:22;1.67;;;0.77;;
42840;SDS011;28491;46.898;7.660;2023-04-15T10:54:48;3.95;;;0.73;;
42840;SDS011;28491;46.898;7.660;2023-04-15T10:57:15;1.08;;;0.70;;
42840;SDS011;28491;46.898;7.660;2023-04-15T11:05:10;1.15;;;0.82;;
42840;SDS011;28491;46.898;7.660;2023-04-15T11:12:59;1.35;;;0.80;;
42840;SDS011;28491;46.898;7.660;2023-04-15T11:15:31;0.60;;;0.60;;
42840;SDS011;28491;46.898;7.660;2023-04-15T11:18:11;0.63;;;0.38;;
42840;SDS011;28491;46.898;7.660;2023-04-15T11:20:42;0.52;;;0.35;;
42840;SDS011;28491;46.898;7.660;2023-04-15T11:23:09;0.90;;;0.40;;
42840;SDS011;28491;46.898;7.660;2023-04-15T11:25:35;0.40;;;0.40;;
42840;SDS011;28491;46.898;7.660;2023-04-15T11:28:03;0.20;;;0.20;;
42840;SDS011;28491;46.898;7.660;2023-04-15T11:30:30;0.32;;;0.32;;
42840;SDS011;28491;46.898;7.660;2023-04-15T11:32:58;0.40;;;0.40;;
42840;SDS011;28491;46.898;7.660;2023-04-15T11:35:28;0.50;;;0.50;;
42840;SDS011;28491;46.898;7.660;2023-04-15T11:37:54;0.20;;;0.20;;
42840;SDS011;28491;46.898;7.660;2023-04-15T11:40:23;0.40;;;0.40;;
42840;SDS011;28491;46.898;7.660;2023-04-15T11:48:21;0.45;;;0.40;;
42840;SDS011;28491;46.898;7.660;2023-04-15T11:56:01;0.85;;;0.65;;
42840;SDS011;28491;46.898;7.660;2023-04-15T11:58:28;0.30;;;0.30;;
42840;SDS011;28491;46.898;7.660;2023-04-15T12:00:54;0.30;;;0.30;;
42840;SDS011;28491;46.898;7.660;2023-04-15T12:06:05;0.38;;;0.38;;
42840;SDS011;28491;46.898;7.660;2023-04-15T12:11:36;0.57;;;0.50;;
42840;SDS011;28491;46.898;7.660;2023-04-15T12:14:26;0.30;;;0.30;;
42840;SDS011;28491;46.898;7.660;2023-04-15T12:16:59;0.20;;;0.20;;
42840;SDS011;28491;46.898;7.660;2023-04-15T12:22:05;0.32;;;0.30;;
42840;SDS011;28491;46.898;7.660;2023-04-15T12:24:35;0.60;;;0.50;;
42840;SDS011;28491;46.898;7.660;2023-04-15T12:27:05;0.30;;;0.30;;
42840;SDS011;28491;46.898;7.660;2023-04-15T12:29:38;0.45;;;0.40;;
42840;SDS011;28491;46.898;7.660;2023-04-15T12:34:33;0.55;;;0.55;;
42840;SDS011;28491;46.898;7.660;2023-04-15T12:37:06;0.35;;;0.35;;
42840;SDS011;28491;46.898;7.660;2023-04-15T12:39:38;0.50;;;0.50;;
42840;SDS011;28491;46.898;7.660;2023-04-15T12:42:05;0.45;;;0.40;;
42840;SDS011;28491;46.898;7.660;2023-04-15T12:44:31;0.95;;;0.68;;
42840;SDS011;28491;46.898;7.660;2023-04-15T12:46:58;0.40;;;0.40;;
42840;SDS011;28491;46.898;7.660;2023-04-15T12:49:24;0.40;;;0.40;;
42840;SDS011;28491;46.898;7.660;2023-04-15T12:51:51;0.40;;;0.40;;
42840;SDS011;28491;46.898;7.660;2023-04-15T12:54:18;0.35;;;0.35;;
42840;SDS011;28491;46.898;7.660;2023-04-15T12:56:45;0.20;;;0.20;;
42840;SDS011;28491;46.898;7.660;2023-04-15T12:59:11;0.30;;;0.30;;
42840;SDS011;28491;46.898;7.660;2023-04-15T13:01:37;0.30;;;0.30;;
42840;SDS011;28491;46.898;7.660;2023-04-15T13:04:03;1.52;;;0.50;;
42840;SDS011;28491;46.898;7.660;2023-04-15T13:06:29;0.30;;;0.30;;
42840;SDS011;28491;46.898;7.660;2023-04-15T13:08:57;0.30;;;0.30;;
42840;SDS011;28491;46.898;7.660;2023-04-15T13:11:27;0.30;;;0.30;;
42840;SDS011;28491;46.898;7.660;2023-04-15T13:13:55;1.15;;;0.40;;
42840;SDS011;28491;46.898;7.660;2023-04-15T13:16:21;0.50;;;0.50;;
42840;SDS011;28491;46.898;7.660;2023-04-15T13:18:47;0.45;;;0.45;;
42840;SDS011;28491;46.898;7.660;2023-04-15T13:21:13;0.73;;;0.68;;
42840;SDS011;28491;46.898;7.660;2023-04-15T13:23:40;3.53;;;1.90;;
42840;SDS011;28491;46.898;7.660;2023-04-15T13:26:06;3.10;;;2.10;;
42840;SDS011;28491;46.898;7.660;2023-04-15T13:28:32;5.80;;;3.85;;
42840;SDS011;28491;46.898;7.660;2023-04-15T13:30:58;3.47;;;2.53;;
42840;SDS011;28491;46.898;7.660;2023-04-15T13:33:24;0.88;;;0.35;;
42840;SDS011;28491;46.898;7.660;2023-04-15T13:35:50;0.57;;;0.57;;
42840;SDS011;28491;46.898;7.660;2023-04-15T13:38:15;0.40;;;0.40;;
42840;SDS011;28491;46.898;7.660;2023-04-15T13:40:41;0.98;;;0.52;;
42840;SDS011;28491;46.898;7.660;2023-04-15T13:43:06;0.40;;;0.40;;
42840;SDS011;28491;46.898;7.660;2023-04-15T13:45:32;0.50;;;0.43;;
42840;SDS011;28491;46.898;7.660;2023-04-15T13:47:57;0.57;;;0.57;;
42840;SDS011;28491;46.898;7.660;2023-04-15T13:50:23;0.60;;;0.50;;
42840;SDS011;28491;46.898;7.660;2023-04-15T13:52:49;0.70;;;0.60;;
42840;SDS011;28491;46.898;7.660;2023-04-15T13:55:14;0.70;;;0.70;;
42840;SDS011;28491;46.898;7.660;2023-04-15T13:57:40;0.50;;;0.50;;
42840;SDS011;28491;46.898;7.660;2023-04-15T14:00:06;2.72;;;1.55;;
42840;SDS011;28491;46.898;7.660;2023-04-15T14:02:32;0.73;;;0.52;;
42840;SDS011;28491;46.898;7.660;2023-04-15T14:04:57;0.95;;;0.70;;
42840;SDS011;28491;46.898;7.660;2023-04-15T14:07:23;1.23;;;0.60;;
42840;SDS011;28491;46.898;7.660;2023-04-15T14:09:48;0.60;;;0.60;;
42840;SDS011;28491;46.898;7.660;2023-04-15T14:12:14;1.25;;;0.68;;
42840;SDS011;28491;46.898;7.660;2023-04-15T14:14:40;0.40;;;0.40;;
42840;SDS011;28491;46.898;7.660;2023-04-15T14:17:06;2.63;;;0.70;;
42840;SDS011;28491;46.898;7.660;2023-04-15T14:19:32;1.20;;;0.57;;
42840;SDS011;28491;46.898;7.660;2023-04-15T14:21:59;1.02;;;0.93;;
42840;SDS011;28491;46.898;7.660;2023-04-15T14:24:24;2.25;;;1.42;;
42840;SDS011;28491;46.898;7.660;2023-04-15T14:26:50;1.02;;;0.80;;
42840;SDS011;28491;46.898;7.660;2023-04-15T14:29:15;1.08;;;0.70;;
42840;SDS011;28491;46.898;7.660;2023-04-15T14:31:41;0.98;;;0.60;;
42840;SDS011;28491;46.898;7.660;2023-04-15T14:34:08;0.70;;;0.70;;
42840;SDS011;28491;46.898;7.660;2023-04-15T14:36:34;0.30;;;0.30;;
42840;SDS011;28491;46.898;7.660;2023-04-15T14:39:00;0.68;;;0.52;;
42840;SDS011;28491;46.898;7.660;2023-04-15T14:41:26;0.63;;;0.45;;
42840;SDS011;28491;46.898;7.660;2023-04-15T14:43:51;0.40;;;0.40;;
42840;SDS011;28491;46.898;7.660;2023-04-15T14:46:17;0.68;;;0.50;;
42840;SDS011;28491;46.898;7.660;2023-04-15T14:48:42;0.43;;;0.40;;
42840;SDS011;28491;46.898;7.660;2023-04-15T14:51:08;0.50;;;0.50;;
42840;SDS011;28491;46.898;7.660;2023-04-15T14:53:33;0.40;;;0.40;;
42840;SDS011;28491;46.898;7.660;2023-04-15T14:55:59;0.40;;;0.40;;
42840;SDS011;28491;46.898;7.660;2023-04-15T14:58:24;0.55;;;0.55;;
42840;SDS011;28491;46.898;7.660;2023-04-15T15:00:50;0.38;;;0.38;;
42840;SDS011;28491;46.898;7.660;2023-04-15T15:03:15;0.85;;;0.63;;
42840;SDS011;28491;46.898;7.660;2023-04-15T15:05:41;0.65;;;0.50;;
42840;SDS011;28491;46.898;7.660;2023-04-15T15:08:08;0.60;;;0.60;;
42840;SDS011;28491;46.898;7.660;2023-04-15T15:10:35;0.40;;;0.40;;
42840;SDS011;28491;46.898;7.660;2023-04-15T15:13:03;0.82;;;0.52;;
42840;SDS011;28491;46.898;7.660;2023-04-15T15:15:30;0.60;;;0.60;;